Time;durP1;ratioP1;P1;durP2;ratioP2;P2;SDS_P1;SDS_P2;PMS_P1;PMS_P2;Temp;Humidity;BMP_temperature;BMP_pressure;BME280_temperature;BME280_humidity;BME280_pressure;Samples;Min_cycle;Max_cycle;Signal;HPM_P1;HPM_P2
2022/11/26 00:01:17;;;;;;;21.42;4.50;;;;;;;10.12;70.55;102611.91;5050067;28;20028;-40
2022/11/26 00:03:44;;;;;;;17.70;4.43;;;;;;;10.09;70.64;102620.47;5050727;28;20035;-44
2022/11/26 00:06:31;;;;;;;12.98;4.03;;;;;;;10.13;69.96;102624.97;5050629;28;20021;-42
2022/11/26 00:08:58;;;;;;;16.58;4.18;;;;;;;10.13;70.16;102619.75;5050757;28;20025;-42
2022/11/26 00:11:23;;;;;;;14.98;4.28;;;;;;;10.11;70.13;102625.75;5049953;28;20457;-41
2022/11/26 00:13:48;;;;;;;12.15;4.07;;;;;;;10.14;70.00;102633.69;5050514;28;20039;-43
2022/11/26 00:16:14;;;;;;;16.38;3.92;;;;;;;10.11;70.28;102625.75;5050705;28;20028;-44
2022/11/26 00:18:43;;;;;;;17.10;4.70;;;;;;;10.04;70.24;102632.41;5051431;28;20029;-46
2022/11/26 00:21:24;;;;;;;14.38;4.30;;;;;;;10.05;70.27;102628.09;5051140;28;20524;-42
2022/11/26 00:23:51;;;;;;;13.07;4.18;;;;;;;10.00;70.38;102634.81;5051021;28;20025;-46
2022/11/26 00:26:20;;;;;;;16.10;4.28;;;;;;;10.03;70.43;102628.00;5051267;28;20055;-43
2022/11/26 00:28:56;;;;;;;15.85;3.97;;;;;;;10.03;69.93;102632.31;5053683;28;20044;-42
2022/11/26 00:31:23;;;;;;;14.88;4.40;;;;;;;10.02;69.64;102638.34;5054196;28;20108;-43
2022/11/26 00:33:48;;;;;;;14.75;4.20;;;;;;;9.94;69.76;102638.00;5051778;28;20131;-42
2022/11/26 00:36:26;;;;;;;17.88;4.30;;;;;;;9.93;70.25;102641.47;5050468;28;20112;-42
2022/11/26 00:39:00;;;;;;;17.90;4.22;;;;;;;9.90;70.26;102643.94;5050760;28;20032;-42
2022/11/26 00:41:30;;;;;;;15.07;4.15;;;;;;;9.90;70.28;102638.72;5050219;28;20055;-42
2022/11/26 00:43:56;;;;;;;20.40;4.30;;;;;;;9.97;70.24;102635.56;5050509;28;20354;-41
2022/11/26 00:46:22;;;;;;;16.85;4.65;;;;;;;9.99;70.71;102635.63;5050352;28;20032;-43
2022/11/26 00:48:48;;;;;;;18.92;4.45;;;;;;;10.01;70.66;102634.84;5050836;28;20037;-41
2022/11/26 00:51:16;;;;;;;15.55;4.47;;;;;;;10.05;70.21;102626.38;5050453;28;20397;-44
2022/11/26 00:53:43;;;;;;;13.30;4.13;;;;;;;10.05;69.74;102630.69;5050123;28;20029;-43
2022/11/26 00:56:15;;;;;;;14.20;4.53;;;;;;;10.02;70.17;102628.81;5050085;28;20060;-44
2022/11/26 00:58:40;;;;;;;21.38;4.90;;;;;;;10.03;70.52;102637.53;5050070;28;20021;-41
2022/11/26 01:01:10;;;;;;;15.98;4.50;;;;;;;10.08;70.14;102634.31;5050179;28;20029;-41
2022/11/26 01:03:35;;;;;;;17.10;4.38;;;;;;;10.07;70.42;102629.00;5050020;28;20021;-42
2022/11/26 01:06:00;;;;;;;19.33;4.65;;;;;;;10.07;70.73;102644.66;5049405;28;20025;-43
2022/11/26 01:08:33;;;;;;;17.10;4.82;;;;;;;10.10;70.84;102643.09;5050104;28;20029;-44
2022/11/26 01:11:01;;;;;;;19.85;4.45;;;;;;;10.14;70.45;102642.38;5049354;28;20028;-41
2022/11/26 01:13:27;;;;;;;16.95;4.70;;;;;;;10.12;70.57;102654.44;5049551;28;20025;-43
2022/11/26 01:15:54;;;;;;;18.58;5.20;;;;;;;10.07;70.79;102653.38;5049763;28;20039;-43
2022/11/26 01:18:20;;;;;;;19.30;4.97;;;;;;;9.97;71.73;102658.13;5049972;28;20511;-42
2022/11/26 01:20:46;;;;;;;19.20;5.10;;;;;;;10.04;71.02;102663.66;5049280;28;20029;-43
2022/11/26 01:23:14;;;;;;;19.65;5.03;;;;;;;10.06;70.23;102668.97;5049712;28;20431;-41
2022/11/26 01:25:40;;;;;;;17.52;5.15;;;;;;;10.02;70.43;102670.53;5049680;28;20032;-41
2022/11/26 01:28:10;;;;;;;25.17;5.30;;;;;;;9.94;70.96;102673.63;5049921;28;20032;-41
2022/11/26 01:30:35;;;;;;;19.85;5.30;;;;;;;10.00;70.88;102679.97;5049455;28;20047;-44
2022/11/26 01:33:00;;;;;;;24.33;5.72;;;;;;;9.93;70.96;102685.75;5049854;28;20029;-42
2022/11/26 01:35:27;;;;;;;17.48;5.47;;;;;;;9.90;71.36;102684.72;5049741;28;20112;-41
2022/11/26 01:37:52;;;;;;;16.60;5.50;;;;;;;9.91;71.06;102681.28;5049660;28;20025;-42
2022/11/26 01:40:23;;;;;;;22.83;5.55;;;;;;;9.95;70.71;102684.09;5049586;28;20033;-39
2022/11/26 01:43:10;;;;;;;18.75;5.47;;;;;;;9.85;71.51;102676.69;5049555;28;20056;-41
2022/11/26 01:45:36;;;;;;;13.98;5.28;;;;;;;9.81;71.24;102681.72;5049487;28;20393;-41
2022/11/26 01:48:09;;;;;;;21.00;5.60;;;;;;;9.83;70.70;102680.94;5049678;28;20029;-41
2022/11/26 01:50:46;;;;;;;19.10;5.32;;;;;;;9.85;70.92;102681.00;5049164;28;20388;-42
2022/11/26 01:53:18;;;;;;;14.48;5.03;;;;;;;9.83;71.04;102675.72;5049723;28;20053;-44
2022/11/26 01:56:17;;;;;;;22.25;5.50;;;;;;;9.85;71.03;102678.41;5050686;28;20480;-41
2022/11/26 01:58:47;;;;;;;21.05;5.20;;;;;;;9.87;70.67;102677.66;5051780;28;20021;-40
2022/11/26 02:01:13;;;;;;;21.42;5.53;;;;;;;9.73;71.41;102684.84;5051684;28;20032;-41
2022/11/26 02:04:25;;;;;;;20.67;6.00;;;;;;;9.74;71.93;102678.81;5052019;28;20032;-41
2022/11/26 02:06:52;;;;;;;22.15;6.07;;;;;;;9.82;71.57;102679.16;5051983;28;20511;-40
2022/11/26 02:09:18;;;;;;;21.70;6.07;;;;;;;9.90;71.01;102674.28;5052153;28;20369;-42
2022/11/26 02:11:44;;;;;;;20.27;6.32;;;;;;;9.80;72.04;102675.59;5050007;28;20032;-41
2022/11/26 02:14:16;;;;;;;19.25;5.80;;;;;;;9.91;71.80;102673.47;5050626;28;20025;-40
2022/11/26 02:16:50;;;;;;;15.93;5.63;;;;;;;9.98;71.51;102673.81;5053738;28;20017;-43
2022/11/26 02:19:53;;;;;;;21.63;6.05;;;;;;;9.97;71.55;102673.75;5055306;28;20024;-43
2022/11/26 02:22:49;;;;;;;19.98;5.45;;;;;;;10.07;71.52;102675.91;5052603;28;20052;-42
2022/11/26 02:25:35;;;;;;;18.63;5.88;;;;;;;10.01;71.42;102675.66;5053005;28;20384;-42
2022/11/26 02:28:28;;;;;;;20.60;5.93;;;;;;;9.99;71.57;102680.81;5052756;28;20025;-44
2022/11/26 02:31:07;;;;;;;18.65;5.80;;;;;;;9.99;71.97;102685.13;5052526;28;20366;-44
2022/11/26 02:33:38;;;;;;;25.70;6.70;;;;;;;10.11;72.25;102696.09;5053537;28;20033;-42
2022/11/26 02:36:11;;;;;;;18.63;5.75;;;;;;;10.19;71.66;102697.34;5053674;28;20031;-41
2022/11/26 02:38:38;;;;;;;21.55;6.10;;;;;;;10.16;71.84;102698.13;5053688;28;20028;-42
2022/11/26 02:41:04;;;;;;;20.98;6.10;;;;;;;10.24;71.60;102700.19;5053477;28;20021;-42
2022/11/26 02:43:31;;;;;;;20.65;5.72;;;;;;;10.27;71.61;102698.59;5052673;28;20357;-42
2022/11/26 02:46:03;;;;;;;22.15;6.55;;;;;;;10.16;71.83;102694.59;5052346;28;20095;-42
2022/11/26 02:48:37;;;;;;;17.92;5.55;;;;;;;10.27;71.21;102695.09;5052341;28;20703;-42
2022/11/26 02:51:13;;;;;;;18.83;5.80;;;;;;;10.25;71.14;102692.41;5053892;28;20028;-39
2022/11/26 02:53:40;;;;;;;19.17;5.70;;;;;;;10.27;71.34;102697.69;5054136;28;20024;-43
2022/11/26 02:56:14;;;;;;;19.17;5.55;;;;;;;10.27;71.32;102692.47;5054802;28;20021;-40
2022/11/26 02:58:40;;;;;;;;;;;;;;;10.20;71.64;102695.63;5052491;28;20017;-43
2022/11/26 03:01:11;;;;;;;20.92;6.03;;;;;;;10.14;71.61;102698.81;5073941;23;19927;-50
2022/11/26 03:03:42;;;;;;;15.38;5.40;;;;;;;10.32;71.38;102694.44;5052350;28;20087;-43
2022/11/26 03:06:11;;;;;;;16.27;5.40;;;;;;;10.30;71.20;102697.84;5052647;28;20495;-44
2022/11/26 03:08:36;;;;;;;27.65;6.65;;;;;;;10.26;71.53;102694.19;5052365;28;20070;-44
2022/11/26 03:11:02;;;;;;;21.20;6.72;;;;;;;10.25;71.97;102712.34;5052161;28;20033;-43
2022/11/26 03:13:27;;;;;;;19.17;6.30;;;;;;;10.25;71.84;102704.53;5052709;28;20035;-46
2022/11/26 03:15:53;;;;;;;18.63;5.93;;;;;;;10.31;71.40;102703.09;5052689;28;20075;-43
2022/11/26 03:18:18;;;;;;;16.20;6.10;;;;;;;10.31;71.50;102703.09;5052968;28;20017;-43
2022/11/26 03:20:43;;;;;;;23.65;6.32;;;;;;;10.32;71.75;102698.78;5052342;28;20366;-43
2022/11/26 03:23:09;;;;;;;19.35;6.57;;;;;;;10.29;71.79;102702.16;5052159;28;20048;-43
2022/11/26 03:25:35;;;;;;;24.73;7.22;;;;;;;10.28;71.75;102704.69;5052253;28;20067;-48
2022/11/26 03:28:01;;;;;;;23.45;6.47;;;;;;;10.35;71.95;102706.75;5052419;28;20477;-43
2022/11/26 03:30:26;;;;;;;23.25;7.03;;;;;;;10.22;71.96;102720.06;5051330;28;20036;-45
2022/11/26 03:32:51;;;;;;;20.80;7.22;;;;;;;10.21;71.81;102720.88;5052237;28;20445;-45
2022/11/26 03:35:17;;;;;;;24.50;7.57;;;;;;;10.25;72.40;102728.88;5051874;28;20031;-44
2022/11/26 03:37:43;;;;;;;24.02;7.53;;;;;;;10.31;72.21;102723.06;5051803;28;20143;-50
2022/11/26 03:40:09;;;;;;;25.75;7.82;;;;;;;10.37;71.76;102721.59;5051911;28;20021;-45
2022/11/26 03:42:35;;;;;;;22.13;7.60;;;;;;;10.39;71.93;102719.97;5051622;28;20033;-42
2022/11/26 03:45:01;;;;;;;21.25;7.88;;;;;;;10.41;71.53;102728.75;5051661;28;20028;-46
2022/11/26 03:47:26;;;;;;;26.70;8.05;;;;;;;10.30;71.86;102729.13;5051569;28;20055;-43
2022/11/26 03:49:52;;;;;;;21.80;8.25;;;;;;;10.39;71.84;102738.22;5051508;28;20043;-46
2022/11/26 03:52:17;;;;;;;22.52;7.85;;;;;;;10.42;71.67;102729.66;5050914;28;20033;-44
2022/11/26 03:54:43;;;;;;;25.25;8.90;;;;;;;10.38;71.86;102735.53;5051512;28;20069;-44
2022/11/26 03:57:08;;;;;;;24.40;8.60;;;;;;;10.43;71.92;102736.66;5051434;28;20020;-46
2022/11/26 03:59:34;;;;;;;19.98;8.57;;;;;;;10.39;71.73;102746.03;5051739;28;20098;-43
2022/11/26 04:01:59;;;;;;;26.15;8.48;;;;;;;10.37;71.29;102752.91;5050990;28;20552;-41
2022/11/26 04:04:24;;;;;;;24.05;8.55;;;;;;;10.36;71.87;102745.94;5051174;28;20077;-49
2022/11/26 04:06:49;;;;;;;22.65;8.50;;;;;;;10.45;71.34;102737.59;5051064;28;20029;-43
2022/11/26 04:09:15;;;;;;;29.08;9.07;;;;;;;10.36;72.11;102740.72;5052127;28;20025;-45
2022/11/26 04:11:40;;;;;;;25.05;9.25;;;;;;;10.38;71.83;102740.75;5051581;28;20043;-43
2022/11/26 04:14:05;;;;;;;26.50;9.40;;;;;;;10.30;71.99;102727.41;5052091;28;20033;-43
2022/11/26 04:16:31;;;;;;;23.23;8.88;;;;;;;10.28;72.12;102729.03;5051502;28;20031;-45
2022/11/26 04:18:56;;;;;;;27.30;8.98;;;;;;;10.31;72.29;102736.09;5051518;28;20024;-42
2022/11/26 04:21:21;;;;;;;23.90;8.98;;;;;;;10.40;71.91;102737.41;5050878;28;20025;-45
2022/11/26 04:23:46;;;;;;;27.88;9.30;;;;;;;10.37;71.93;102731.19;5051256;28;20035;-44
2022/11/26 04:26:12;;;;;;;26.77;9.93;;;;;;;10.41;71.79;102741.81;5051138;28;20025;-45
2022/11/26 04:28:37;;;;;;;24.77;8.93;;;;;;;10.32;71.73;102748.31;5051239;28;20051;-43
2022/11/26 04:31:03;;;;;;;27.60;9.73;;;;;;;10.30;71.62;102749.97;5050401;28;20021;-43
2022/11/26 04:33:28;;;;;;;23.95;10.02;;;;;;;10.33;71.64;102737.94;5050890;28;20029;-44
2022/11/26 04:35:54;;;;;;;29.55;9.30;;;;;;;10.25;71.89;102749.75;5050956;28;20024;-44
2022/11/26 04:38:20;;;;;;;26.25;9.38;;;;;;;10.36;71.53;102745.94;5051003;28;20143;-41
2022/11/26 04:40:46;;;;;;;25.67;9.45;;;;;;;10.34;71.31;102744.97;5049441;28;20037;-43
2022/11/26 04:43:12;;;;;;;22.23;9.20;;;;;;;10.32;71.18;102743.09;5051013;28;20032;-45
2022/11/26 04:45:37;;;;;;;28.27;9.40;;;;;;;10.31;71.46;102741.31;5051170;28;20033;-41
2022/11/26 04:48:03;;;;;;;22.23;9.30;;;;;;;10.31;71.66;102749.13;5050752;28;20449;-47
2022/11/26 04:50:28;;;;;;;24.65;9.60;;;;;;;10.21;71.69;102741.72;5050536;28;20104;-43
2022/11/26 04:52:53;;;;;;;22.40;9.77;;;;;;;10.24;71.51;102747.09;5050357;28;20025;-42
2022/11/26 04:55:19;;;;;;;23.85;9.82;;;;;;;10.27;71.71;102749.81;5050778;28;20021;-43
2022/11/26 04:57:47;;;;;;;24.98;9.75;;;;;;;10.33;71.58;102757.91;5051015;28;20017;-46
2022/11/26 05:00:14;;;;;;;30.85;10.75;;;;;;;10.23;71.98;102763.56;5050376;28;20029;-42
2022/11/26 05:02:39;;;;;;;27.48;10.13;;;;;;;10.34;71.67;102757.09;5050740;28;20029;-43
2022/11/26 05:05:05;;;;;;;29.52;10.77;;;;;;;10.18;72.29;102762.47;5049557;28;20090;-43
2022/11/26 05:07:30;;;;;;;26.80;10.35;;;;;;;10.15;72.41;102756.25;5052414;28;20024;-45
2022/11/26 05:09:56;;;;;;;30.08;11.30;;;;;;;10.20;72.53;102769.50;5052515;28;20124;-45
2022/11/26 05:12:21;;;;;;;29.00;11.02;;;;;;;10.20;72.31;102761.69;5051761;28;20032;-42
2022/11/26 05:14:46;;;;;;;30.10;10.90;;;;;;;10.18;72.77;102767.69;5052018;28;20036;-46
2022/11/26 05:17:11;;;;;;;31.95;11.30;;;;;;;10.20;72.22;102776.44;5050475;28;20120;-43
2022/11/26 05:19:37;;;;;;;29.48;11.35;;;;;;;10.18;72.49;102779.00;5049475;28;20081;-42
2022/11/26 05:22:02;;;;;;;28.60;11.20;;;;;;;10.22;72.30;102775.69;5050643;28;20025;-41
2022/11/26 05:24:27;;;;;;;31.02;11.52;;;;;;;10.21;71.81;102781.72;5050968;28;20032;-43
2022/11/26 05:26:52;;;;;;;33.28;11.82;;;;;;;10.20;71.73;102774.72;5050953;28;20489;-43
2022/11/26 05:29:18;;;;;;;29.15;11.57;;;;;;;10.13;71.95;102783.03;5050741;28;20036;-43
2022/11/26 05:31:43;;;;;;;33.53;11.68;;;;;;;10.14;72.21;102784.84;5050598;28;20032;-46
2022/11/26 05:34:08;;;;;;;30.05;11.95;;;;;;;10.15;71.77;102784.03;5050749;28;20040;-42
2022/11/26 05:36:34;;;;;;;27.48;11.57;;;;;;;10.15;71.62;102787.53;5050464;28;20021;-45
2022/11/26 05:38:59;;;;;;;27.67;12.27;;;;;;;10.06;71.90;102781.88;5050603;28;20384;-43
2022/11/26 05:41:24;;;;;;;31.50;12.30;;;;;;;10.01;72.81;102790.31;5050294;28;20032;-43
2022/11/26 05:43:49;;;;;;;30.40;12.32;;;;;;;10.11;71.71;102790.81;5050868;28;20033;-43
2022/11/26 05:46:17;;;;;;;30.00;12.95;;;;;;;10.17;71.62;102787.63;5050894;28;20452;-44
2022/11/26 05:48:42;;;;;;;35.85;13.50;;;;;;;10.15;71.51;102787.53;5051318;28;20021;-47
2022/11/26 05:51:07;;;;;;;33.78;13.13;;;;;;;10.23;71.61;102793.13;5051173;28;20156;-43
2022/11/26 05:53:33;;;;;;;40.00;14.95;;;;;;;10.03;71.85;102789.56;5055119;28;20103;-48
2022/11/26 05:55:58;;;;;;;34.63;14.80;;;;;;;10.07;72.23;102798.41;5055060;28;20021;-43
2022/11/26 05:58:24;;;;;;;33.25;14.43;;;;;;;10.24;71.78;102799.22;5055359;28;20028;-43
2022/11/26 06:00:51;;;;;;;37.15;15.57;;;;;;;10.22;71.52;102796.53;5053656;28;20071;-43
2022/11/26 06:03:16;;;;;;;33.10;14.60;;;;;;;10.26;71.40;102794.97;5053835;28;20029;-43
2022/11/26 06:05:41;;;;;;;39.30;15.73;;;;;;;10.13;71.44;102796.06;5053629;28;20028;-44
2022/11/26 06:08:06;;;;;;;36.22;15.98;;;;;;;10.21;71.61;102797.38;5054010;28;20025;-43
2022/11/26 06:10:32;;;;;;;38.25;16.27;;;;;;;10.16;71.90;102799.78;5053642;28;20508;-43
2022/11/26 06:12:57;;;;;;;37.65;16.42;;;;;;;10.16;71.86;102797.16;5053837;28;20021;-41
2022/11/26 06:15:22;;;;;;;36.72;16.98;;;;;;;10.18;71.87;102807.66;5054479;28;20031;-44
2022/11/26 06:17:48;;;;;;;40.42;16.42;;;;;;;10.22;71.80;102806.97;5054011;28;20515;-45
2022/11/26 06:20:14;;;;;;;39.50;16.67;;;;;;;10.24;71.79;102804.44;5053715;28;20040;-43
2022/11/26 06:22:41;;;;;;;39.58;16.38;;;;;;;10.24;71.48;102800.13;5053771;28;20056;-45
2022/11/26 06:25:09;;;;;;;42.83;15.65;;;;;;;10.25;72.15;102806.19;5054266;28;20025;-43
2022/11/26 06:27:35;;;;;;;35.60;16.85;;;;;;;10.18;71.84;102804.16;5053494;28;20448;-44
2022/11/26 06:30:02;;;;;;;35.88;15.45;;;;;;;10.22;72.53;102806.06;5053687;28;20538;-44
2022/11/26 06:32:28;;;;;;;38.97;15.23;;;;;;;10.25;72.61;102809.69;5053273;28;20037;-41
2022/11/26 06:34:54;;;;;;;42.45;16.25;;;;;;;10.13;72.40;102806.50;5053477;28;20428;-44
2022/11/26 06:37:19;;;;;;;40.30;14.82;;;;;;;10.35;72.09;102798.00;5052480;28;20017;-45
2022/11/26 06:39:44;;;;;;;33.72;14.40;;;;;;;10.31;72.06;102804.75;5053256;28;20020;-46
2022/11/26 06:42:10;;;;;;;38.65;14.70;;;;;;;10.40;71.96;102809.50;5052639;28;20025;-46
2022/11/26 06:44:35;;;;;;;41.03;14.80;;;;;;;10.40;72.30;102812.13;5053499;28;20052;-50
2022/11/26 06:47:00;;;;;;;38.13;14.05;;;;;;;10.37;72.21;102822.44;5053537;28;20021;-43
2022/11/26 06:49:26;;;;;;;39.42;14.52;;;;;;;10.38;72.16;102816.38;5053325;28;20062;-45
2022/11/26 06:51:52;;;;;;;37.08;13.95;;;;;;;10.42;72.29;102819.19;5053353;28;20519;-43
2022/11/26 06:54:17;;;;;;;34.33;13.43;;;;;;;10.49;71.64;102821.22;5053142;28;20056;-43
2022/11/26 06:56:43;;;;;;;41.45;13.38;;;;;;;10.37;72.44;102825.91;5053167;28;20060;-43
2022/11/26 06:59:08;;;;;;;42.10;13.90;;;;;;;10.15;73.26;102829.22;5052604;28;20021;-45
2022/11/26 07:01:33;;;;;;;39.22;13.00;;;;;;;10.45;72.38;102834.06;5053620;28;20036;-43
2022/11/26 07:03:59;;;;;;;44.35;12.65;;;;;;;10.57;71.88;102838.13;5055609;28;20017;-45
2022/11/26 07:06:27;;;;;;;33.30;13.05;;;;;;;10.60;71.93;102839.09;5054148;28;20028;-42
2022/11/26 07:08:55;;;;;;;31.27;12.32;;;;;;;10.61;72.04;102838.28;5053333;28;20390;-43
2022/11/26 07:11:21;;;;;;;38.72;13.13;;;;;;;10.62;72.18;102840.94;5052961;28;20390;-43
2022/11/26 07:13:47;;;;;;;33.17;11.93;;;;;;;10.58;72.30;102849.44;5053137;28;20036;-46
2022/11/26 07:16:13;;;;;;;30.60;11.57;;;;;;;10.66;72.10;102848.09;5053256;28;20029;-42
2022/11/26 07:18:38;;;;;;;30.05;11.70;;;;;;;10.58;72.22;102844.22;5053200;28;20019;-43
2022/11/26 07:21:10;;;;;;;37.20;11.35;;;;;;;10.69;71.77;102849.91;5052333;28;20032;-44
2022/11/26 07:23:35;;;;;;;31.10;11.43;;;;;;;10.61;71.54;102847.00;5052877;28;20016;-44
2022/11/26 07:26:02;;;;;;;34.67;11.95;;;;;;;10.63;71.57;102847.03;5052956;28;20466;-42
2022/11/26 07:28:28;;;;;;;43.97;11.95;;;;;;;10.58;71.86;102847.75;5052583;28;20037;-44
2022/11/26 07:30:54;;;;;;;31.25;12.00;;;;;;;10.74;71.34;102840.56;5052734;28;20047;-44
2022/11/26 07:33:19;;;;;;;34.97;11.20;;;;;;;10.75;71.14;102844.97;5052494;28;20480;-43
2022/11/26 07:35:44;;;;;;;34.45;11.35;;;;;;;10.65;71.62;102854.13;5052221;28;20040;-49
2022/11/26 07:38:10;;;;;;;30.30;11.40;;;;;;;10.66;71.89;102857.63;5052120;28;20031;-44
2022/11/26 07:40:35;;;;;;;36.47;11.23;;;;;;;10.69;71.57;102860.34;5052340;28;20017;-44
2022/11/26 07:43:00;;;;;;;35.00;11.13;;;;;;;10.73;71.63;102857.97;5052365;28;20170;-47
2022/11/26 07:45:26;;;;;;;31.98;11.80;;;;;;;10.74;71.72;102856.22;5052493;28;20108;-43
2022/11/26 07:47:51;;;;;;;31.50;10.70;;;;;;;10.81;71.63;102853.06;5053021;28;20031;-44
2022/11/26 07:50:16;;;;;;;37.65;12.13;;;;;;;10.78;71.67;102859.06;5052166;28;20115;-52
2022/11/26 07:52:41;;;;;;;28.52;11.05;;;;;;;10.82;71.77;102855.75;5052337;28;20035;-43
2022/11/26 07:55:07;;;;;;;32.78;11.45;;;;;;;10.73;72.34;102854.47;5052420;28;20108;-43
2022/11/26 07:57:32;;;;;;;28.65;11.32;;;;;;;10.85;71.66;102868.06;5052195;28;20099;-43
2022/11/26 07:59:58;;;;;;;32.15;11.15;;;;;;;10.83;71.80;102856.66;5052140;28;20499;-44
2022/11/26 08:02:23;;;;;;;29.35;10.93;;;;;;;10.82;72.11;102863.59;5051433;28;20032;-43
2022/11/26 08:04:48;;;;;;;28.10;10.60;;;;;;;10.99;71.58;102861.69;5051527;28;20037;-45
2022/11/26 08:07:14;;;;;;;36.67;11.65;;;;;;;10.89;71.63;102872.56;5051733;28;20025;-46
2022/11/26 08:09:39;;;;;;;33.70;11.05;;;;;;;11.00;71.81;102863.50;5051580;28;20055;-45
2022/11/26 08:12:05;;;;;;;41.03;12.23;;;;;;;10.97;71.31;102866.88;5051215;28;20112;-47
2022/11/26 08:14:31;;;;;;;32.83;10.80;;;;;;;11.06;71.78;102865.47;5051173;28;20029;-43
2022/11/26 08:16:56;;;;;;;29.80;10.52;;;;;;;11.19;71.58;102871.28;5051720;28;20035;-43
2022/11/26 08:19:22;;;;;;;26.90;10.05;;;;;;;11.25;71.60;102871.53;5051674;28;20035;-45
2022/11/26 08:21:47;;;;;;;28.83;10.50;;;;;;;11.32;71.54;102864.84;5050828;28;20055;-43
2022/11/26 08:24:16;;;;;;;25.23;9.82;;;;;;;11.31;71.63;102866.56;5051252;28;20088;-44
2022/11/26 08:26:42;;;;;;;32.15;10.43;;;;;;;11.36;71.42;102864.16;5051650;28;20481;-43
2022/11/26 08:29:07;;;;;;;27.50;10.18;;;;;;;11.38;71.53;102866.00;5051113;28;20036;-47
2022/11/26 08:31:33;;;;;;;32.15;10.02;;;;;;;11.43;71.60;102866.19;5050915;28;20025;-43
2022/11/26 08:33:59;;;;;;;32.17;10.05;;;;;;;11.47;71.20;102877.66;5050856;28;20111;-46
2022/11/26 08:36:25;;;;;;;25.38;9.77;;;;;;;11.56;71.15;102883.28;5051007;28;20022;-44
2022/11/26 08:38:51;;;;;;;28.13;9.88;;;;;;;11.59;70.99;102879.03;5051435;28;20021;-44
2022/11/26 08:41:16;;;;;;;31.25;9.93;;;;;;;11.61;71.03;102881.72;5050759;28;20524;-43
2022/11/26 08:43:41;;;;;;;25.88;10.13;;;;;;;11.55;71.25;102884.97;5052098;28;20115;-42
2022/11/26 08:46:09;;;;;;;29.70;10.23;;;;;;;11.33;71.87;102884.94;5051571;28;20154;-42
2022/11/26 08:48:35;;;;;;;31.42;9.52;;;;;;;11.50;71.52;102881.28;5051050;28;20017;-42
2022/11/26 08:51:03;;;;;;;29.42;9.80;;;;;;;11.53;71.17;102884.03;5051325;28;20021;-45
2022/11/26 08:53:29;;;;;;;24.25;8.85;;;;;;;11.61;70.87;102877.41;5052325;28;20407;-48
2022/11/26 08:56:02;;;;;;;28.58;9.15;;;;;;;11.56;70.52;102876.31;5052600;28;20027;-44
2022/11/26 08:58:28;;;;;;;29.33;9.50;;;;;;;11.59;70.86;102876.44;5051474;28;20095;-46
2022/11/26 09:00:53;;;;;;;32.20;9.25;;;;;;;11.54;71.09;102877.06;5073940;23;20016;-44
2022/11/26 09:03:18;;;;;;;26.95;9.45;;;;;;;11.60;70.74;102879.94;5050183;28;20094;-42
2022/11/26 09:05:43;;;;;;;29.15;9.43;;;;;;;11.60;70.60;102880.84;5051012;28;20044;-43
2022/11/26 09:08:09;;;;;;;30.23;9.55;;;;;;;11.71;70.68;102886.53;5050462;28;20476;-43
2022/11/26 09:10:34;;;;;;;25.00;9.35;;;;;;;11.74;70.61;102884.06;5049776;28;20041;-45
2022/11/26 09:12:59;;;;;;;24.90;8.98;;;;;;;11.84;70.67;102900.97;5050193;28;20082;-46
2022/11/26 09:15:25;;;;;;;23.60;9.25;;;;;;;11.74;71.29;102890.19;5050117;28;20078;-45
2022/11/26 09:17:50;;;;;;;27.10;8.88;;;;;;;11.67;71.33;102884.59;5050193;28;20107;-45
2022/11/26 09:20:15;;;;;;;29.48;9.00;;;;;;;11.74;70.77;102882.34;5049692;28;20037;-45
2022/11/26 09:22:40;;;;;;;28.20;8.27;;;;;;;11.97;70.45;102884.97;5050727;28;20029;-47
2022/11/26 09:25:06;;;;;;;28.90;8.85;;;;;;;11.88;70.60;102887.22;5050078;28;20033;-49
2022/11/26 09:27:31;;;;;;;22.63;8.18;;;;;;;11.95;70.57;102895.38;5051848;28;20071;-44
2022/11/26 09:29:57;;;;;;;31.33;8.75;;;;;;;11.85;70.96;102876.63;5053060;28;20040;-44
2022/11/26 09:32:22;;;;;;;24.17;7.72;;;;;;;11.92;70.21;102879.56;5054473;28;20180;-43
2022/11/26 09:34:47;;;;;;;23.42;8.07;;;;;;;12.02;70.39;102876.47;5058660;28;20025;-45
2022/11/26 09:37:12;;;;;;;25.27;7.78;;;;;;;11.79;70.87;102878.19;5063721;28;20028;-49
2022/11/26 09:39:38;;;;;;;24.08;8.70;;;;;;;11.95;70.82;102891.88;5061341;28;20028;-44
2022/11/26 09:42:20;;;;;;;25.67;7.80;;;;;;;12.08;70.42;102902.84;5058877;28;20473;-47
2022/11/26 09:45:10;;;;;;;24.48;7.65;;;;;;;12.02;70.50;102914.78;5057744;28;20033;-48
2022/11/26 09:47:39;;;;;;;25.70;7.38;;;;;;;11.70;71.51;102905.63;5060384;28;20476;-45
2022/11/26 09:50:05;;;;;;;25.17;6.93;;;;;;;12.02;70.74;102900.00;5065857;28;20028;-43
2022/11/26 09:52:52;;;;;;;28.33;7.57;;;;;;;12.10;70.27;102898.59;5060850;28;20117;-44
2022/11/26 09:55:23;;;;;;;27.85;8.48;;;;;;;12.14;70.08;102890.03;5057977;28;20047;-49
2022/11/26 09:58:18;;;;;;;22.08;7.43;;;;;;;12.05;70.23;102894.91;5055974;28;20108;-44
2022/11/26 10:00:49;;;;;;;23.30;7.50;;;;;;;11.94;70.75;102893.59;5055235;28;20033;-45
2022/11/26 10:03:18;;;;;;;22.45;7.65;;;;;;;12.12;70.11;102893.44;5056941;28;20607;-47
2022/11/26 10:05:53;;;;;;;21.63;7.50;;;;;;;12.08;70.55;102897.63;5056567;28;20505;-44
2022/11/26 10:08:44;;;;;;;26.90;7.85;;;;;;;12.02;71.11;102893.88;5055060;28;20024;-46
2022/11/26 10:11:34;;;;;;;21.80;7.80;;;;;;;11.98;71.35;102905.94;5053503;28;20064;-43
2022/11/26 10:14:08;;;;;;;26.42;7.65;;;;;;;11.99;70.87;102899.91;5053226;28;20028;-43
2022/11/26 10:16:44;;;;;;;22.95;7.57;;;;;;;12.29;70.56;102899.31;5053481;28;20124;-42
2022/11/26 10:19:38;;;;;;;23.20;7.47;;;;;;;12.25;70.37;102900.03;5053447;28;20082;-44
2022/11/26 10:22:13;;;;;;;26.67;8.18;;;;;;;12.31;70.45;102897.66;5052551;28;20076;-43
2022/11/26 10:24:40;;;;;;;20.48;7.57;;;;;;;12.30;70.37;102893.25;5053335;28;20033;-42
2022/11/26 10:27:15;;;;;;;23.48;6.95;;;;;;;12.57;70.09;102897.78;5052832;28;20021;-46
2022/11/26 10:29:43;;;;;;;24.65;7.15;;;;;;;12.52;70.39;102893.22;5052918;28;20029;-45
2022/11/26 10:32:22;;;;;;;23.73;7.30;;;;;;;12.74;69.84;102892.31;5052491;28;20128;-46
2022/11/26 10:34:55;;;;;;;24.92;7.70;;;;;;;12.68;69.66;102884.22;5052949;28;20393;-45
2022/11/26 10:37:23;;;;;;;21.60;7.57;;;;;;;12.70;70.34;102895.63;5053058;28;20017;-43
2022/11/26 10:39:54;;;;;;;21.40;7.13;;;;;;;12.86;70.01;102898.88;5052646;28;20025;-48
2022/11/26 10:42:21;;;;;;;21.27;7.10;;;;;;;12.91;70.03;102885.94;5052525;28;20027;-42
2022/11/26 10:44:51;;;;;;;18.33;6.70;;;;;;;12.62;70.78;102884.91;5052797;28;20025;-46
2022/11/26 10:47:29;;;;;;;19.73;6.63;;;;;;;13.03;69.60;102891.63;5052356;28;20043;-44
2022/11/26 10:50:13;;;;;;;20.08;6.80;;;;;;;13.08;70.17;102894.38;5052646;28;20029;-45
2022/11/26 10:52:39;;;;;;;19.85;6.53;;;;;;;13.12;69.82;102883.16;5052279;28;20025;-43
2022/11/26 10:55:25;;;;;;;19.40;6.57;;;;;;;13.31;69.51;102880.38;5052877;28;20481;-44
2022/11/26 10:57:58;;;;;;;17.10;6.13;;;;;;;13.45;68.76;102879.13;5052634;28;20028;-43
2022/11/26 11:00:36;;;;;;;17.58;6.57;;;;;;;13.60;68.57;102890.09;5052538;28;20393;-44
2022/11/26 11:03:04;;;;;;;20.45;6.55;;;;;;;13.39;68.71;102892.03;5050936;28;20086;-43
2022/11/26 11:05:31;;;;;;;20.90;6.88;;;;;;;13.61;68.34;102902.38;5052686;28;20017;-45
2022/11/26 11:07:56;;;;;;;21.20;6.63;;;;;;;13.40;68.01;102902.56;5052639;28;20102;-43
2022/11/26 11:10:24;;;;;;;20.13;6.28;;;;;;;13.45;68.48;102907.94;5051794;28;20473;-47
2022/11/26 11:13:12;;;;;;;19.98;6.57;;;;;;;13.60;68.39;102903.22;5052130;28;20446;-44
2022/11/26 11:15:39;;;;;;;18.95;6.07;;;;;;;13.73;67.98;102896.63;5052388;28;20033;-47
2022/11/26 11:18:11;;;;;;;18.50;6.43;;;;;;;13.84;67.83;102899.63;5052857;28;20020;-43
2022/11/26 11:20:39;;;;;;;19.08;5.88;;;;;;;13.68;67.63;102899.13;5051525;28;20254;-44
2022/11/26 11:23:17;;;;;;;24.92;7.00;;;;;;;13.47;67.85;102906.28;5052187;28;20021;-42